createdAt,value
2022-10-24T00:01:33.776Z,99545.00
2022-10-24T00:04:01.452Z,99538.00
2022-10-24T00:06:29.268Z,99531.00
2022-10-24T00:08:56.970Z,99526.00
2022-10-24T00:11:27.073Z,99534.00
2022-10-24T00:13:56.792Z,99535.00
2022-10-24T00:16:25.266Z,99534.00
2022-10-24T00:18:53.292Z,99527.00
2022-10-24T00:21:21.432Z,99527.00
2022-10-24T00:23:49.262Z,99527.00
2022-10-24T00:26:17.362Z,99527.00
2022-10-24T00:28:45.350Z,99534.00
2022-10-24T00:31:16.185Z,99527.00
2022-10-24T00:33:45.381Z,99534.00
2022-10-24T00:36:15.486Z,99533.00
2022-10-24T00:38:43.779Z,99536.00
2022-10-24T00:41:19.516Z,99536.00
2022-10-24T00:43:47.567Z,99532.00
2022-10-24T00:46:17.292Z,99524.00
2022-10-24T00:48:49.225Z,99511.00
2022-10-24T00:51:31.447Z,99499.00
2022-10-24T00:54:01.671Z,99510.00
2022-10-24T00:56:33.036Z,99508.00
2022-10-24T00:59:03.870Z,99501.00
2022-10-24T01:01:32.180Z,99501.00
2022-10-24T01:04:00.077Z,99502.00
2022-10-24T01:06:33.518Z,99513.00
2022-10-24T01:09:50.450Z,99509.00
2022-10-24T01:12:27.731Z,99508.00
2022-10-24T01:15:04.726Z,99509.00
2022-10-24T01:17:55.957Z,99500.00
2022-10-24T01:20:45.071Z,99507.00
2022-10-24T01:23:27.835Z,99521.00
2022-10-24T01:26:27.103Z,99517.00
2022-10-24T01:29:17.048Z,99512.00
2022-10-24T01:32:02.041Z,99508.00
2022-10-24T01:34:34.223Z,99511.00
2022-10-24T01:37:18.717Z,99507.00
2022-10-24T01:39:53.988Z,99511.00
2022-10-24T01:42:23.470Z,99510.00
2022-10-24T01:44:53.837Z,99514.00
2022-10-24T01:47:27.643Z,99511.00
2022-10-24T01:50:05.637Z,99511.00
2022-10-24T01:52:36.680Z,99516.00
2022-10-24T01:55:08.598Z,99520.00
2022-10-24T01:57:36.508Z,99520.00
2022-10-24T02:00:07.174Z,99520.00
2022-10-24T02:02:45.798Z,99518.00
2022-10-24T02:05:24.464Z,99518.00
2022-10-24T02:07:58.305Z,99512.00
2022-10-24T02:10:41.438Z,99501.00
2022-10-24T02:13:27.761Z,99500.00
2022-10-24T02:15:59.362Z,99502.00
2022-10-24T02:18:27.911Z,99501.00
2022-10-24T02:21:13.818Z,99499.00
2022-10-24T02:24:03.805Z,99497.00
2022-10-24T02:26:54.595Z,99493.00
2022-10-24T02:29:28.043Z,99486.00
2022-10-24T02:31:58.057Z,99472.00
2022-10-24T02:34:29.815Z,99482.00
2022-10-24T02:36:58.435Z,99472.00
2022-10-24T02:39:27.401Z,99470.00
2022-10-24T02:41:56.803Z,99468.00
2022-10-24T02:44:25.401Z,99472.00
2022-10-24T02:46:55.384Z,99475.00
2022-10-24T02:49:23.464Z,99476.00
2022-10-24T02:51:52.068Z,99482.00
2022-10-24T02:54:20.407Z,99474.00
2022-10-24T02:56:55.265Z,99477.00
2022-10-24T02:59:23.734Z,99478.00
2022-10-24T03:01:51.610Z,99473.00
2022-10-24T03:04:19.448Z,99475.00
2022-10-24T03:07:18.342Z,99479.00
2022-10-24T03:09:46.149Z,99471.00
2022-10-24T03:12:17.346Z,99465.00
2022-10-24T03:14:45.522Z,99462.00
2022-10-24T03:17:13.345Z,99463.00
2022-10-24T03:19:41.137Z,99466.00
2022-10-24T03:22:09.106Z,99463.00
2022-10-24T03:24:43.987Z,99458.00
2022-10-24T03:27:22.779Z,99462.00
2022-10-24T03:29:50.536Z,99460.00
2022-10-24T03:32:18.315Z,99455.00
2022-10-24T03:34:46.267Z,99461.00
2022-10-24T03:37:14.093Z,99456.00
2022-10-24T03:39:41.902Z,99467.00
2022-10-24T03:42:09.800Z,99465.00
2022-10-24T03:44:37.655Z,99461.00
2022-10-24T03:47:05.402Z,99469.00
2022-10-24T03:49:33.706Z,99459.00
2022-10-24T03:52:01.702Z,99454.00
2022-10-24T03:54:29.522Z,99457.00
2022-10-24T03:56:57.350Z,99449.00
2022-10-24T03:59:25.398Z,99441.00
2022-10-24T04:01:56.093Z,99442.00
2022-10-24T04:04:23.899Z,99443.00
2022-10-24T04:06:51.896Z,99453.00
2022-10-24T04:09:20.292Z,99463.00
2022-10-24T04:11:48.651Z,99456.00
2022-10-24T04:14:16.416Z,99455.00
2022-10-24T04:16:44.388Z,99454.00
2022-10-24T04:19:12.476Z,99462.00
2022-10-24T04:21:40.418Z,99461.00
2022-10-24T04:24:08.529Z,99453.00
2022-10-24T04:26:36.204Z,99460.00
2022-10-24T04:29:04.038Z,99456.00
2022-10-24T04:31:31.718Z,99464.00
2022-10-24T04:33:59.716Z,99465.00
2022-10-24T04:36:27.617Z,99459.00
2022-10-24T04:38:56.539Z,99449.00
2022-10-24T04:41:24.654Z,99456.00
2022-10-24T04:43:53.395Z,99457.00
2022-10-24T04:46:21.313Z,99448.00
2022-10-24T04:48:48.960Z,99447.00
2022-10-24T04:51:19.997Z,99444.00
2022-10-24T04:53:50.787Z,99445.00
2022-10-24T04:56:19.197Z,99444.00
2022-10-24T04:58:47.075Z,99441.00
2022-10-24T05:01:15.090Z,99448.00
2022-10-24T05:03:43.030Z,99444.00
2022-10-24T05:06:10.914Z,99443.00
2022-10-24T05:08:38.995Z,99443.00
2022-10-24T05:11:06.750Z,99445.00
2022-10-24T05:13:36.709Z,99444.00
2022-10-24T05:16:05.517Z,99455.00
2022-10-24T05:18:33.483Z,99454.00
2022-10-24T05:21:01.989Z,99446.00
2022-10-24T05:23:29.846Z,99449.00
2022-10-24T05:25:57.569Z,99456.00
2022-10-24T05:28:25.562Z,99444.00
2022-10-24T05:30:53.296Z,99444.00
2022-10-24T05:33:21.084Z,99441.00
2022-10-24T05:35:49.803Z,99440.00
2022-10-24T05:38:17.909Z,99444.00
2022-10-24T05:40:49.456Z,99446.00
2022-10-24T05:43:17.672Z,99453.00
2022-10-24T05:45:45.622Z,99446.00
2022-10-24T05:48:13.411Z,99451.00
2022-10-24T05:50:41.227Z,99444.00
2022-10-24T05:53:09.186Z,99440.00
2022-10-24T05:55:37.333Z,99443.00
2022-10-24T05:58:04.986Z,99439.00
2022-10-24T06:00:34.178Z,99440.00
2022-10-24T06:03:02.470Z,99440.00
2022-10-24T06:05:30.882Z,99440.00
2022-10-24T06:08:00.262Z,99441.00
2022-10-24T06:10:28.213Z,99433.00
2022-10-24T06:12:55.987Z,99435.00
2022-10-24T06:15:23.827Z,99436.00
2022-10-24T06:17:51.771Z,99440.00
2022-10-24T06:20:19.972Z,99435.00
2022-10-24T06:22:49.987Z,99438.00
2022-10-24T06:25:17.927Z,99442.00
2022-10-24T06:27:45.796Z,99447.00
2022-10-24T06:30:13.746Z,99447.00
2022-10-24T06:32:44.401Z,99447.00
2022-10-24T06:35:14.983Z,99455.00
2022-10-24T06:37:47.157Z,99450.00
2022-10-24T06:40:17.021Z,99459.00
2022-10-24T06:42:45.469Z,99444.00
2022-10-24T06:45:14.049Z,99453.00
2022-10-24T06:47:42.021Z,99454.00
2022-10-24T06:50:10.173Z,99451.00
2022-10-24T06:52:38.549Z,99458.00
2022-10-24T06:55:06.764Z,99454.00
2022-10-24T06:57:34.495Z,99445.00
2022-10-24T07:00:02.260Z,99446.00
2022-10-24T07:02:30.345Z,99450.00
2022-10-24T07:04:58.805Z,99449.00
2022-10-24T07:07:27.004Z,99464.00
2022-10-24T07:09:57.443Z,99461.00
2022-10-24T07:12:26.216Z,99465.00
2022-10-24T07:14:54.015Z,99465.00
2022-10-24T07:17:22.200Z,99464.00
2022-10-24T07:19:55.955Z,99466.00
2022-10-24T07:22:28.353Z,99468.00
2022-10-24T07:24:58.320Z,99463.00
2022-10-24T07:27:26.307Z,99468.00
2022-10-24T07:29:54.287Z,99477.00
2022-10-24T07:32:22.189Z,99468.00
2022-10-24T07:34:50.075Z,99474.00
2022-10-24T07:37:19.628Z,99482.00
2022-10-24T07:39:47.485Z,99482.00
2022-10-24T07:42:15.615Z,99479.00
2022-10-24T07:44:43.421Z,99478.00
2022-10-24T07:47:14.275Z,99470.00
2022-10-24T07:49:42.190Z,99473.00
2022-10-24T07:52:09.991Z,99460.00
2022-10-24T07:54:37.790Z,99475.00
2022-10-24T07:57:08.005Z,99470.00
2022-10-24T07:59:43.096Z,99474.00
2022-10-24T08:02:12.635Z,99468.00
2022-10-24T08:04:41.165Z,99472.00
2022-10-24T08:07:13.742Z,99467.00
2022-10-24T08:09:47.744Z,99477.00
2022-10-24T08:12:15.595Z,99468.00
2022-10-24T08:14:43.773Z,99474.00
2022-10-24T08:17:11.968Z,99471.00
2022-10-24T08:19:44.116Z,99475.00
2022-10-24T08:22:13.141Z,99466.00
2022-10-24T08:24:42.690Z,99473.00
2022-10-24T08:27:10.445Z,99464.00
2022-10-24T08:29:38.565Z,99468.00
2022-10-24T08:32:07.420Z,99464.00
2022-10-24T08:34:35.580Z,99466.00
2022-10-24T08:37:03.646Z,99460.00
2022-10-24T08:39:31.374Z,99467.00
2022-10-24T08:42:03.413Z,99465.00
2022-10-24T08:44:35.862Z,99458.00
2022-10-24T08:47:19.132Z,99459.00
2022-10-24T08:49:59.047Z,99468.00
2022-10-24T08:52:56.698Z,99464.00
2022-10-24T08:55:44.478Z,99462.00
2022-10-24T08:58:24.297Z,99454.00
2022-10-24T09:00:54.412Z,99453.00
2022-10-24T09:03:50.808Z,99462.00
2022-10-24T09:06:27.953Z,99463.00
2022-10-24T09:08:58.755Z,99453.00
2022-10-24T09:11:54.237Z,99450.00
2022-10-24T09:14:28.252Z,99450.00
2022-10-24T09:17:03.497Z,99451.00
2022-10-24T09:19:32.154Z,99446.00
2022-10-24T09:22:01.724Z,99441.00
2022-10-24T09:24:34.986Z,99449.00
2022-10-24T09:27:05.731Z,99444.00
2022-10-24T09:29:34.760Z,99447.00
2022-10-24T09:32:03.569Z,99445.00
2022-10-24T09:34:31.431Z,99440.00
2022-10-24T09:36:59.818Z,99445.00
2022-10-24T09:39:28.922Z,99441.00
2022-10-24T09:41:57.711Z,99429.00
2022-10-24T09:44:32.562Z,99436.00
2022-10-24T09:47:01.424Z,99431.00
2022-10-24T09:49:37.995Z,99430.00
2022-10-24T09:52:19.594Z,99446.00
2022-10-24T09:54:47.946Z,99452.00
2022-10-24T09:57:18.269Z,99450.00
2022-10-24T09:59:48.581Z,99451.00
2022-10-24T10:02:34.477Z,99457.00
2022-10-24T10:05:05.461Z,99453.00
2022-10-24T10:07:43.628Z,99450.00
2022-10-24T10:10:31.754Z,99461.00
2022-10-24T10:13:23.232Z,99455.00
2022-10-24T10:15:56.755Z,99452.00
2022-10-24T10:18:33.239Z,99447.00
2022-10-24T10:21:12.799Z,99456.00
2022-10-24T10:23:56.582Z,99454.00
2022-10-24T10:26:46.743Z,99463.00
2022-10-24T10:29:17.511Z,99460.00
2022-10-24T10:31:50.334Z,99468.00
2022-10-24T10:34:40.512Z,99467.00
2022-10-24T10:37:22.801Z,99469.00
2022-10-24T10:40:16.802Z,99468.00
2022-10-24T10:43:06.159Z,99470.00
2022-10-24T10:45:47.561Z,99460.00
2022-10-24T10:48:30.111Z,99471.00
2022-10-24T10:51:11.418Z,99471.00
2022-10-24T10:53:54.472Z,99472.00
2022-10-24T10:56:25.139Z,99470.00
2022-10-24T10:59:08.094Z,99455.00
2022-10-24T11:01:51.676Z,99468.00
2022-10-24T11:04:39.749Z,99470.00
2022-10-24T11:07:28.753Z,99470.00
2022-10-24T11:09:59.793Z,99476.00
2022-10-24T11:12:32.062Z,99481.00
2022-10-24T11:15:21.449Z,99480.00
2022-10-24T11:18:07.156Z,99479.00
2022-10-24T11:20:54.481Z,99479.00
2022-10-24T11:23:53.617Z,99481.00
2022-10-24T11:26:34.811Z,99474.00
2022-10-24T11:29:24.247Z,99472.00
2022-10-24T11:32:07.418Z,99469.00
2022-10-24T11:35:00.176Z,99468.00
2022-10-24T11:37:56.580Z,99483.00
2022-10-24T11:40:24.984Z,99488.00
2022-10-24T11:43:27.980Z,99487.00
2022-10-24T11:46:20.854Z,99488.00
2022-10-24T11:49:09.511Z,99485.00
2022-10-24T11:51:43.329Z,99484.00
2022-10-24T11:54:27.206Z,99494.00
2022-10-24T11:57:02.587Z,99488.00
2022-10-24T11:59:30.923Z,99488.00
2022-10-24T12:02:26.465Z,99488.00
2022-10-24T12:05:10.456Z,99476.00
2022-10-24T12:07:53.571Z,99497.00
2022-10-24T12:10:24.244Z,99483.00
2022-10-24T12:13:26.799Z,99487.00
2022-10-24T12:16:10.521Z,99475.00
2022-10-24T12:18:41.911Z,99482.00
2022-10-24T12:21:34.538Z,99486.00
2022-10-24T12:24:02.917Z,99478.00
2022-10-24T12:26:35.093Z,99476.00
2022-10-24T12:29:05.091Z,99479.00
2022-10-24T12:31:37.850Z,99480.00
2022-10-24T12:34:20.958Z,99483.00
2022-10-24T12:37:22.501Z,99483.00
2022-10-24T12:39:56.106Z,99463.00
2022-10-24T12:42:26.412Z,99470.00
2022-10-24T12:45:06.295Z,99474.00
2022-10-24T12:47:42.420Z,99480.00
2022-10-24T12:50:22.090Z,99470.00
2022-10-24T12:52:49.815Z,99478.00
2022-10-24T12:55:39.391Z,99474.00
2022-10-24T12:58:30.398Z,99480.00
2022-10-24T13:01:01.799Z,99484.00
2022-10-24T13:03:55.469Z,99477.00
2022-10-24T13:06:50.877Z,99478.00
2022-10-24T13:10:15.782Z,99480.00
2022-10-24T13:13:20.457Z,99482.00
2022-10-24T13:15:55.736Z,99478.00
2022-10-24T13:19:04.344Z,99484.00
2022-10-24T13:21:57.802Z,99486.00
2022-10-24T13:24:35.049Z,99468.00
2022-10-24T13:27:12.965Z,99479.00
2022-10-24T13:29:41.449Z,99481.00
2022-10-24T13:32:11.873Z,99469.00
2022-10-24T13:34:54.925Z,99472.00
2022-10-24T13:37:35.227Z,99475.00
2022-10-24T13:40:14.948Z,99475.00
2022-10-24T13:43:15.825Z,99473.00
2022-10-24T13:46:05.875Z,99479.00
2022-10-24T13:48:39.432Z,99475.00
2022-10-24T13:51:34.887Z,99477.00
2022-10-24T13:54:18.811Z,99479.00
2022-10-24T13:56:48.713Z,99471.00
2022-10-24T13:59:37.828Z,99480.00
2022-10-24T14:02:15.374Z,99489.00
2022-10-24T14:04:48.147Z,99485.00
2022-10-24T14:07:22.284Z,99489.00
2022-10-24T14:10:09.011Z,99488.00
2022-10-24T14:12:40.161Z,99483.00
2022-10-24T14:15:19.994Z,99487.00
2022-10-24T14:18:02.607Z,99483.00
2022-10-24T14:20:35.312Z,99490.00
2022-10-24T14:23:12.086Z,99486.00
2022-10-24T14:25:39.479Z,99485.00
2022-10-24T14:28:31.434Z,99485.00
2022-10-24T14:31:22.253Z,99485.00
2022-10-24T14:33:52.923Z,99490.00
2022-10-24T14:36:29.713Z,99479.00
2022-10-24T14:39:01.096Z,99485.00
2022-10-24T14:41:35.662Z,99493.00
2022-10-24T14:44:03.308Z,99490.00
2022-10-24T14:46:42.425Z,99489.00
2022-10-24T14:49:28.352Z,99492.00
2022-10-24T14:52:14.566Z,99495.00
2022-10-24T14:54:51.794Z,99496.00
2022-10-24T14:57:23.013Z,99498.00
2022-10-24T14:59:53.746Z,99501.00
2022-10-24T15:02:30.830Z,99503.00
2022-10-24T15:05:19.643Z,99511.00
2022-10-24T15:08:20.244Z,99522.00
2022-10-24T15:10:47.090Z,99524.00
2022-10-24T15:13:21.582Z,99519.00
2022-10-24T15:15:53.313Z,99524.00
2022-10-24T15:18:33.588Z,99521.00
2022-10-24T15:21:08.274Z,99519.00
2022-10-24T15:23:45.046Z,99523.00
2022-10-24T15:26:39.317Z,99525.00
2022-10-24T15:29:15.367Z,99519.00
2022-10-24T15:31:46.332Z,99527.00
2022-10-24T15:34:25.042Z,99536.00
2022-10-24T15:36:54.037Z,99539.00
2022-10-24T15:39:24.773Z,99533.00
2022-10-24T15:41:53.472Z,99532.00
2022-10-24T15:44:29.581Z,99534.00
2022-10-24T15:46:57.421Z,99536.00
2022-10-24T15:49:25.266Z,99533.00
2022-10-24T15:51:52.775Z,99541.00
2022-10-24T15:54:22.834Z,99543.00
2022-10-24T15:56:50.630Z,99548.00
2022-10-24T15:59:22.685Z,99548.00
2022-10-24T16:02:00.928Z,99557.00
2022-10-24T16:04:29.483Z,99551.00
2022-10-24T16:06:57.002Z,99560.00
2022-10-24T16:09:27.810Z,99562.00
2022-10-24T16:11:55.574Z,99560.00
2022-10-24T16:14:26.354Z,99570.00
2022-10-24T16:16:55.403Z,99575.00
2022-10-24T16:19:24.207Z,99566.00
2022-10-24T16:21:52.844Z,99573.00
2022-10-24T16:24:20.368Z,99576.00
2022-10-24T16:26:47.694Z,99580.00
2022-10-24T16:29:15.026Z,99578.00
2022-10-24T16:31:44.045Z,99577.00
2022-10-24T16:34:11.607Z,99585.00
2022-10-24T16:36:41.124Z,99578.00
2022-10-24T16:39:09.470Z,99576.00
2022-10-24T16:41:37.415Z,99579.00
2022-10-24T16:44:05.208Z,99580.00
2022-10-24T16:46:32.727Z,99585.00
2022-10-24T16:49:00.412Z,99584.00
2022-10-24T16:51:32.703Z,99593.00
2022-10-24T16:54:01.776Z,99591.00
2022-10-24T16:56:30.487Z,99582.00
2022-10-24T16:58:58.036Z,99585.00
2022-10-24T17:01:27.796Z,99590.00
2022-10-24T17:03:55.612Z,99581.00
2022-10-24T17:06:23.424Z,99594.00
2022-10-24T17:08:51.662Z,99585.00
2022-10-24T17:11:43.965Z,99591.00
2022-10-24T17:16:39.316Z,99587.00
2022-10-24T17:19:15.662Z,99590.00
2022-10-24T17:21:46.927Z,99599.00
2022-10-24T17:24:17.576Z,99598.00
2022-10-24T17:26:45.399Z,99593.00
2022-10-24T17:29:39.379Z,99593.00
2022-10-24T17:32:07.199Z,99603.00
2022-10-24T17:34:35.758Z,99592.00
2022-10-24T17:37:30.810Z,99595.00
2022-10-24T17:40:13.677Z,99590.00
2022-10-24T17:42:42.180Z,99598.00
2022-10-24T17:45:22.663Z,99604.00
2022-10-24T17:47:50.109Z,99606.00
2022-10-24T17:50:19.001Z,99610.00
2022-10-24T17:52:51.051Z,99614.00
2022-10-24T17:58:13.023Z,99612.00
2022-10-24T18:00:43.329Z,99609.00
2022-10-24T18:03:11.240Z,99611.00
2022-10-24T18:05:39.181Z,99614.00
2022-10-24T18:08:09.754Z,99617.00
2022-10-24T18:10:39.393Z,99621.00
2022-10-24T18:13:08.077Z,99628.00
2022-10-24T18:15:36.899Z,99629.00
2022-10-24T18:18:05.762Z,99633.00
2022-10-24T18:20:35.011Z,99631.00
2022-10-24T18:23:03.314Z,99638.00
2022-10-24T18:25:30.963Z,99637.00
2022-10-24T18:27:58.499Z,99632.00
2022-10-24T18:30:27.595Z,99624.00
2022-10-24T18:32:55.268Z,99636.00
2022-10-24T18:35:22.689Z,99629.00
2022-10-24T18:37:53.953Z,99637.00
2022-10-24T18:40:21.968Z,99643.00
2022-10-24T18:42:59.301Z,99638.00
2022-10-24T18:45:28.404Z,99645.00
2022-10-24T18:47:56.214Z,99641.00
2022-10-24T18:50:25.394Z,99645.00
2022-10-24T18:53:04.809Z,99647.00
2022-10-24T18:55:34.980Z,99644.00
2022-10-24T18:58:03.541Z,99646.00
2022-10-24T19:00:33.317Z,99641.00
2022-10-24T19:03:29.553Z,99645.00
2022-10-24T19:06:26.478Z,99646.00
2022-10-24T19:08:54.130Z,99645.00
2022-10-24T19:11:24.426Z,99642.00
2022-10-24T19:13:52.189Z,99643.00
2022-10-24T19:16:28.690Z,99634.00
2022-10-24T19:19:01.117Z,99643.00
2022-10-24T19:21:28.792Z,99647.00
2022-10-24T19:23:56.602Z,99638.00
2022-10-24T19:26:24.080Z,99641.00
2022-10-24T19:28:51.506Z,99646.00
2022-10-24T19:31:19.345Z,99647.00
2022-10-24T19:33:46.880Z,99647.00
2022-10-24T19:36:19.091Z,99647.00
2022-10-24T19:38:46.873Z,99648.00
2022-10-24T19:41:14.480Z,99641.00
2022-10-24T19:43:41.929Z,99649.00
2022-10-24T19:46:24.676Z,99649.00
2022-10-24T19:48:53.319Z,99646.00
2022-10-24T19:51:21.338Z,99656.00
2022-10-24T19:53:49.917Z,99658.00
2022-10-24T19:56:28.941Z,99655.00
2022-10-24T19:58:56.483Z,99653.00
2022-10-24T20:01:29.927Z,99660.00
2022-10-24T20:03:57.974Z,99659.00
2022-10-24T20:06:26.658Z,99654.00
2022-10-24T20:08:57.834Z,99659.00
2022-10-24T20:11:25.690Z,99660.00
2022-10-24T20:13:53.822Z,99665.00
2022-10-24T20:16:22.973Z,99666.00
2022-10-24T20:18:50.691Z,99673.00
2022-10-24T20:21:19.623Z,99679.00
2022-10-24T20:23:48.563Z,99690.00
2022-10-24T20:26:23.624Z,99690.00
2022-10-24T20:28:54.640Z,99696.00
2022-10-24T20:31:47.336Z,99694.00
2022-10-24T20:34:16.481Z,99701.00
2022-10-24T20:36:47.464Z,99704.00
2022-10-24T20:39:16.393Z,99704.00
2022-10-24T20:41:44.057Z,99696.00
2022-10-24T20:44:12.523Z,99704.00
2022-10-24T20:46:41.546Z,99700.00
2022-10-24T20:49:09.096Z,99701.00
2022-10-24T20:51:36.984Z,99703.00
2022-10-24T20:54:09.555Z,99707.00
2022-10-24T20:56:42.040Z,99704.00
2022-10-24T20:59:12.984Z,99700.00
2022-10-24T21:01:42.619Z,99702.00
2022-10-24T21:04:10.292Z,99704.00
2022-10-24T21:06:37.925Z,99706.00
2022-10-24T21:09:07.349Z,99701.00
2022-10-24T21:11:36.147Z,99705.00
2022-10-24T21:14:07.269Z,99703.00
2022-10-24T21:16:36.069Z,99707.00
2022-10-24T21:19:04.532Z,99705.00
2022-10-24T21:21:32.619Z,99706.00
2022-10-24T21:24:04.316Z,99708.00
2022-10-24T21:26:40.568Z,99712.00
2022-10-24T21:29:20.671Z,99715.00
2022-10-24T21:31:56.280Z,99711.00
2022-10-24T21:34:25.900Z,99716.00
2022-10-24T21:36:58.315Z,99727.00
2022-10-24T21:39:25.855Z,99725.00
2022-10-24T21:41:54.601Z,99732.00
2022-10-24T21:44:25.752Z,99723.00
2022-10-24T21:46:54.608Z,99721.00
2022-10-24T21:49:26.731Z,99733.00
2022-10-24T21:51:55.109Z,99722.00
2022-10-24T21:54:25.540Z,99721.00
2022-10-24T21:56:53.197Z,99725.00
2022-10-24T21:59:22.326Z,99722.00
2022-10-24T22:01:52.443Z,99726.00
2022-10-24T22:04:20.927Z,99735.00
2022-10-24T22:06:48.858Z,99734.00
2022-10-24T22:09:24.874Z,99736.00
2022-10-24T22:11:55.013Z,99737.00
2022-10-24T22:14:25.739Z,99749.00
2022-10-24T22:16:53.448Z,99744.00
2022-10-24T22:19:20.891Z,99751.00
2022-10-24T22:21:50.902Z,99753.00
2022-10-24T22:24:24.214Z,99756.00
2022-10-24T22:26:53.203Z,99757.00
2022-10-24T22:29:23.571Z,99765.00
2022-10-24T22:31:52.999Z,99761.00
2022-10-24T22:34:26.052Z,99771.00
2022-10-24T22:37:28.327Z,99778.00
2022-10-24T22:39:56.849Z,99780.00
2022-10-24T22:42:24.778Z,99781.00
2022-10-24T22:44:52.797Z,99786.00
2022-10-24T22:47:38.620Z,99782.00
2022-10-24T22:50:24.272Z,99788.00
2022-10-24T22:52:52.358Z,99787.00
2022-10-24T22:55:34.871Z,99794.00
2022-10-24T22:58:03.029Z,99799.00
2022-10-24T23:00:31.377Z,99786.00
2022-10-24T23:03:22.989Z,99788.00
2022-10-24T23:06:00.830Z,99788.00
2022-10-24T23:08:36.516Z,99796.00
2022-10-24T23:11:04.660Z,99797.00
2022-10-24T23:13:32.832Z,99797.00
2022-10-24T23:16:15.629Z,99800.00
2022-10-24T23:18:43.519Z,99802.00
2022-10-24T23:21:29.377Z,99809.00
2022-10-24T23:23:58.085Z,99821.00
2022-10-24T23:26:43.423Z,99825.00
2022-10-24T23:29:31.313Z,99820.00
2022-10-24T23:31:59.619Z,99813.00
2022-10-24T23:34:31.755Z,99823.00
2022-10-24T23:37:05.188Z,99823.00
2022-10-24T23:39:35.467Z,99821.00
2022-10-24T23:42:05.105Z,99813.00
2022-10-24T23:44:33.024Z,99811.00
2022-10-24T23:47:11.311Z,99825.00
2022-10-24T23:49:54.739Z,99809.00
2022-10-24T23:53:14.777Z,99820.00
2022-10-24T23:55:43.003Z,99825.00
2022-10-24T23:58:12.112Z,99830.00
